Quincy, Ohio
Current Conditions -  °F | °C
As of 12:30 AM on Friday 28 Nov 2014 (Local Time) from KEDJ Reporting Station
Overcast Overcast  
Wind Chill: 15°   Ceiling: 1300
Heat Index: 25°   Visibility: 10mi
Dew Point: 21°   Wind: 9mph
Humidity: 86%   Direction: 270°W
Pressure: 30.33"   Gusts: NA
Location:  40.3°N, 83.97°W
Report Text: KEDJ 280530Z AUTO 27008KT 10SM BKN013 OVC017 M04/M06 A3033 RMK AO1
Loading
Personal Weather Stations






























Interactive Weather Map New forecast layout! Learn more

10-Day Weather Forecast

Advertisements
Track Severe Weather on mobile